sensor_id;sensor_type;location;lat;lon;timestamp;pressure;altitude;pressure_sealevel;temperature;humidity
64189;BME280;50493;50.970;10.082;2023-05-19T00:00:39;100153.75;;;13.24;44.93
64189;BME280;50493;50.970;10.082;2023-05-19T00:03:06;100152.91;;;13.22;44.93
64189;BME280;50493;50.970;10.082;2023-05-19T00:05:33;100145.97;;;13.17;44.99
64189;BME280;50493;50.970;10.082;2023-05-19T00:08:01;100149.59;;;13.12;45.19
64189;BME280;50493;50.970;10.082;2023-05-19T00:10:27;100143.53;;;13.08;45.41
64189;BME280;50493;50.970;10.082;2023-05-19T00:12:56;100148.78;;;13.08;45.22
64189;BME280;50493;50.970;10.082;2023-05-19T00:15:22;100150.78;;;12.97;45.46
64189;BME280;50493;50.970;10.082;2023-05-19T00:17:47;100143.84;;;12.93;45.46
64189;BME280;50493;50.970;10.082;2023-05-19T00:20:14;100148.25;;;12.91;45.44
64189;BME280;50493;50.970;10.082;2023-05-19T00:22:39;100138.84;;;12.80;45.70
64189;BME280;50493;50.970;10.082;2023-05-19T00:25:08;100136.25;;;12.76;45.75
64189;BME280;50493;50.970;10.082;2023-05-19T00:27:34;100133.78;;;12.70;45.81
64189;BME280;50493;50.970;10.082;2023-05-19T00:29:59;100141.75;;;12.63;45.98
64189;BME280;50493;50.970;10.082;2023-05-19T00:32:25;100144.44;;;12.60;45.91
64189;BME280;50493;50.970;10.082;2023-05-19T00:34:50;100153.31;;;12.52;46.27
64189;BME280;50493;50.970;10.082;2023-05-19T00:37:17;100148.97;;;12.49;46.21
64189;BME280;50493;50.970;10.082;2023-05-19T00:39:42;100154.31;;;12.44;46.18
64189;BME280;50493;50.970;10.082;2023-05-19T00:42:07;100152.66;;;12.39;46.51
64189;BME280;50493;50.970;10.082;2023-05-19T00:44:35;100151.84;;;12.35;46.33
64189;BME280;50493;50.970;10.082;2023-05-19T00:47:01;100145.88;;;12.27;46.48
64189;BME280;50493;50.970;10.082;2023-05-19T00:49:27;100147.81;;;12.15;46.68
64189;BME280;50493;50.970;10.082;2023-05-19T00:51:53;100154.94;;;12.07;46.86
64189;BME280;50493;50.970;10.082;2023-05-19T00:54:20;100147.06;;;12.07;46.83
64189;BME280;50493;50.970;10.082;2023-05-19T00:56:46;100142.72;;;12.03;46.65
64189;BME280;50493;50.970;10.082;2023-05-19T00:59:11;100148.78;;;12.08;46.43
64189;BME280;50493;50.970;10.082;2023-05-19T01:01:37;100152.25;;;12.10;46.57
64189;BME280;50493;50.970;10.082;2023-05-19T01:04:03;100146.22;;;12.04;46.47
64189;BME280;50493;50.970;10.082;2023-05-19T01:06:29;100146.38;;;11.94;46.70
64189;BME280;50493;50.970;10.082;2023-05-19T01:08:54;100145.66;;;11.85;46.92
64189;BME280;50493;50.970;10.082;2023-05-19T01:11:22;100140.50;;;11.78;47.03
64189;BME280;50493;50.970;10.082;2023-05-19T01:13:48;100137.06;;;11.73;46.88
64189;BME280;50493;50.970;10.082;2023-05-19T01:16:22;100130.19;;;11.66;47.09
64189;BME280;50493;50.970;10.082;2023-05-19T01:18:55;100136.38;;;11.59;47.19
64189;BME280;50493;50.970;10.082;2023-05-19T01:24:37;100141.78;;;11.48;47.27
64189;BME280;50493;50.970;10.082;2023-05-19T01:27:41;100135.69;;;11.44;47.21
64189;BME280;50493;50.970;10.082;2023-05-19T01:30:23;100137.50;;;11.42;47.27
64189;BME280;50493;50.970;10.082;2023-05-19T01:32:52;100139.25;;;11.40;47.18
64189;BME280;50493;50.970;10.082;2023-05-19T01:35:18;100146.31;;;11.34;47.29
64189;BME280;50493;50.970;10.082;2023-05-19T01:37:45;100138.53;;;11.27;47.48
64189;BME280;50493;50.970;10.082;2023-05-19T01:40:12;100134.28;;;11.19;47.56
64189;BME280;50493;50.970;10.082;2023-05-19T01:42:38;100135.19;;;11.16;47.64
64189;BME280;50493;50.970;10.082;2023-05-19T01:45:05;100135.22;;;11.13;47.75
64189;BME280;50493;50.970;10.082;2023-05-19T01:47:42;100136.09;;;11.13;47.91
64189;BME280;50493;50.970;10.082;2023-05-19T01:50:09;100132.66;;;11.08;47.67
64189;BME280;50493;50.970;10.082;2023-05-19T01:52:35;100129.31;;;10.97;47.92
64189;BME280;50493;50.970;10.082;2023-05-19T01:55:00;100129.31;;;10.95;47.87
64189;BME280;50493;50.970;10.082;2023-05-19T01:57:32;100133.69;;;10.93;47.76
64189;BME280;50493;50.970;10.082;2023-05-19T02:00:07;100134.59;;;10.91;47.83
64189;BME280;50493;50.970;10.082;2023-05-19T02:02:41;100130.22;;;10.93;47.65
64189;BME280;50493;50.970;10.082;2023-05-19T02:05:12;100134.63;;;10.88;47.75
64189;BME280;50493;50.970;10.082;2023-05-19T02:07:43;100137.25;;;10.86;47.82
64189;BME280;50493;50.970;10.082;2023-05-19T02:10:14;100133.75;;;10.89;47.57
64189;BME280;50493;50.970;10.082;2023-05-19T02:12:44;100137.31;;;10.83;47.64
64189;BME280;50493;50.970;10.082;2023-05-19T02:15:13;100133.88;;;10.78;47.78
64189;BME280;50493;50.970;10.082;2023-05-19T02:17:42;100135.66;;;10.73;47.90
64189;BME280;50493;50.970;10.082;2023-05-19T02:20:12;100138.28;;;10.71;47.86
64189;BME280;50493;50.970;10.082;2023-05-19T02:22:37;100138.25;;;10.74;47.67
64189;BME280;50493;50.970;10.082;2023-05-19T02:25:03;100134.00;;;10.62;48.02
64189;BME280;50493;50.970;10.082;2023-05-19T02:27:29;100125.38;;;10.57;48.17
64189;BME280;50493;50.970;10.082;2023-05-19T02:29:55;100133.22;;;10.56;48.07
64189;BME280;50493;50.970;10.082;2023-05-19T02:32:20;100135.88;;;10.51;48.02
64189;BME280;50493;50.970;10.082;2023-05-19T02:34:47;100131.50;;;10.52;48.04
64189;BME280;50493;50.970;10.082;2023-05-19T02:37:13;100137.66;;;10.46;48.25
64189;BME280;50493;50.970;10.082;2023-05-19T02:39:38;100139.41;;;10.47;48.07
64189;BME280;50493;50.970;10.082;2023-05-19T02:42:04;100143.75;;;10.48;47.86
64189;BME280;50493;50.970;10.082;2023-05-19T02:44:29;100140.31;;;10.41;48.14
64189;BME280;50493;50.970;10.082;2023-05-19T02:46:55;100136.84;;;10.42;48.01
64189;BME280;50493;50.970;10.082;2023-05-19T02:49:20;100127.19;;;10.46;47.79
64189;BME280;50493;50.970;10.082;2023-05-19T02:51:46;100133.41;;;10.37;47.88
64189;BME280;50493;50.970;10.082;2023-05-19T02:54:12;100128.94;;;10.48;47.71
64189;BME280;50493;50.970;10.082;2023-05-19T02:56:37;100128.94;;;10.48;47.58
64189;BME280;50493;50.970;10.082;2023-05-19T02:59:02;100131.53;;;10.48;47.45
64189;BME280;50493;50.970;10.082;2023-05-19T03:01:28;100124.56;;;10.47;47.41
64189;BME280;50493;50.970;10.082;2023-05-19T03:03:53;100128.16;;;10.32;47.82
64189;BME280;50493;50.970;10.082;2023-05-19T03:06:18;100126.47;;;10.27;47.81
64189;BME280;50493;50.970;10.082;2023-05-19T03:08:48;100120.47;;;10.17;48.18
64189;BME280;50493;50.970;10.082;2023-05-19T03:11:14;100120.50;;;10.14;48.21
64189;BME280;50493;50.970;10.082;2023-05-19T03:13:39;100116.13;;;10.14;48.18
64189;BME280;50493;50.970;10.082;2023-05-19T03:16:05;100123.03;;;10.23;47.91
64189;BME280;50493;50.970;10.082;2023-05-19T03:18:32;100126.53;;;10.21;47.93
64189;BME280;50493;50.970;10.082;2023-05-19T03:20:57;100116.09;;;10.18;47.88
64189;BME280;50493;50.970;10.082;2023-05-19T03:23:22;100117.78;;;10.25;47.65
64189;BME280;50493;50.970;10.082;2023-05-19T03:25:49;100120.44;;;10.23;47.57
64189;BME280;50493;50.970;10.082;2023-05-19T03:28:14;100118.66;;;10.24;47.52
64189;BME280;50493;50.970;10.082;2023-05-19T03:30:41;100117.78;;;10.22;47.31
64189;BME280;50493;50.970;10.082;2023-05-19T03:33:06;100119.50;;;10.26;47.26
64189;BME280;50493;50.970;10.082;2023-05-19T03:35:31;100118.59;;;10.33;47.09
64189;BME280;50493;50.970;10.082;2023-05-19T03:37:57;100113.38;;;10.30;47.01
64189;BME280;50493;50.970;10.082;2023-05-19T03:40:22;100116.06;;;10.24;47.28
64189;BME280;50493;50.970;10.082;2023-05-19T03:42:49;100117.84;;;10.19;47.56
64189;BME280;50493;50.970;10.082;2023-05-19T03:45:14;100121.28;;;10.22;47.13
64189;BME280;50493;50.970;10.082;2023-05-19T03:47:39;100116.91;;;10.27;47.01
64189;BME280;50493;50.970;10.082;2023-05-19T03:50:06;100121.25;;;10.27;47.05
64189;BME280;50493;50.970;10.082;2023-05-19T03:52:31;100115.97;;;10.33;46.82
64189;BME280;50493;50.970;10.082;2023-05-19T03:54:57;100114.28;;;10.29;46.70
64189;BME280;50493;50.970;10.082;2023-05-19T03:57:23;100119.50;;;10.26;47.05
64189;BME280;50493;50.970;10.082;2023-05-19T03:59:49;100125.56;;;10.31;46.92
64189;BME280;50493;50.970;10.082;2023-05-19T04:02:14;100130.81;;;10.36;48.74
64189;BME280;50493;50.970;10.082;2023-05-19T04:04:40;100128.34;;;10.09;47.99
64189;BME280;50493;50.970;10.082;2023-05-19T04:07:05;100131.06;;;9.97;47.79
64189;BME280;50493;50.970;10.082;2023-05-19T04:09:31;100127.41;;;10.20;47.04
64189;BME280;50493;50.970;10.082;2023-05-19T04:11:59;100134.41;;;10.14;47.26
64189;BME280;50493;50.970;10.082;2023-05-19T04:14:25;100136.09;;;10.22;47.02
64189;BME280;50493;50.970;10.082;2023-05-19T04:16:52;100137.81;;;10.24;47.10
64189;BME280;50493;50.970;10.082;2023-05-19T04:19:18;100137.00;;;10.19;47.10
64189;BME280;50493;50.970;10.082;2023-05-19T04:21:43;100137.84;;;10.21;46.92
64189;BME280;50493;50.970;10.082;2023-05-19T04:24:09;100136.88;;;10.30;46.81
64189;BME280;50493;50.970;10.082;2023-05-19T04:26:34;100137.75;;;10.32;46.56
64189;BME280;50493;50.970;10.082;2023-05-19T04:29:00;100140.25;;;10.51;46.17
64189;BME280;50493;50.970;10.082;2023-05-19T04:31:28;100137.63;;;10.52;46.21
64189;BME280;50493;50.970;10.082;2023-05-19T04:33:55;100141.94;;;10.55;46.10
64189;BME280;50493;50.970;10.082;2023-05-19T04:36:20;100131.44;;;10.58;46.00
64189;BME280;50493;50.970;10.082;2023-05-19T04:38:46;100126.06;;;10.75;45.59
64189;BME280;50493;50.970;10.082;2023-05-19T04:41:12;100133.91;;;10.75;45.61
64189;BME280;50493;50.970;10.082;2023-05-19T04:43:37;100127.78;;;10.77;45.98
64189;BME280;50493;50.970;10.082;2023-05-19T04:46:08;100132.00;;;10.89;45.12
64189;BME280;50493;50.970;10.082;2023-05-19T04:48:35;100131.72;;;11.14;44.48
64189;BME280;50493;50.970;10.082;2023-05-19T04:51:02;100134.44;;;11.75;43.09
64189;BME280;50493;50.970;10.082;2023-05-19T04:53:27;100126.56;;;12.82;40.78
64189;BME280;50493;50.970;10.082;2023-05-19T04:55:53;100132.56;;;14.46;38.99
64189;BME280;50493;50.970;10.082;2023-05-19T04:58:18;100130.03;;;15.09;37.72
64189;BME280;50493;50.970;10.082;2023-05-19T05:00:44;100127.34;;;15.70;36.59
64189;BME280;50493;50.970;10.082;2023-05-19T05:03:09;100127.28;;;14.47;36.56
64189;BME280;50493;50.970;10.082;2023-05-19T05:05:36;100122.50;;;13.93;37.83
64189;BME280;50493;50.970;10.082;2023-05-19T05:08:03;100122.91;;;15.12;35.91
64189;BME280;50493;50.970;10.082;2023-05-19T05:10:28;100115.63;;;16.34;33.76
64189;BME280;50493;50.970;10.082;2023-05-19T05:12:54;100117.81;;;16.73;32.29
64189;BME280;50493;50.970;10.082;2023-05-19T05:15:21;100122.78;;;17.77;32.42
64189;BME280;50493;50.970;10.082;2023-05-19T05:17:47;100120.47;;;18.55;29.79
64189;BME280;50493;50.970;10.082;2023-05-19T05:20:13;100121.09;;;17.97;30.42
64189;BME280;50493;50.970;10.082;2023-05-19T05:22:39;100120.81;;;19.08;29.97
64189;BME280;50493;50.970;10.082;2023-05-19T05:25:08;100118.50;;;19.59;28.61
64189;BME280;50493;50.970;10.082;2023-05-19T05:27:33;100117.78;;;19.55;28.61
64189;BME280;50493;50.970;10.082;2023-05-19T05:29:58;100120.28;;;19.95;29.61
64189;BME280;50493;50.970;10.082;2023-05-19T05:32:24;100117.78;;;20.28;29.02
64189;BME280;50493;50.970;10.082;2023-05-19T05:34:49;100114.72;;;20.71;27.18
64189;BME280;50493;50.970;10.082;2023-05-19T05:37:15;100111.88;;;20.92;28.66
64189;BME280;50493;50.970;10.082;2023-05-19T05:39:40;100111.59;;;20.63;26.41
64189;BME280;50493;50.970;10.082;2023-05-19T05:42:07;100109.00;;;20.09;26.96
64189;BME280;50493;50.970;10.082;2023-05-19T05:44:36;100107.53;;;20.03;30.05
64189;BME280;50493;50.970;10.082;2023-05-19T05:47:02;100111.03;;;19.29;31.84
64189;BME280;50493;50.970;10.082;2023-05-19T05:49:27;100110.94;;;19.11;32.03
64189;BME280;50493;50.970;10.082;2023-05-19T05:51:53;100107.44;;;19.30;28.81
64189;BME280;50493;50.970;10.082;2023-05-19T05:54:20;100110.19;;;19.47;31.48
64189;BME280;50493;50.970;10.082;2023-05-19T05:56:46;100107.03;;;18.80;30.50
64189;BME280;50493;50.970;10.082;2023-05-19T05:59:14;100108.28;;;18.72;29.20
64189;BME280;50493;50.970;10.082;2023-05-19T06:01:39;100109.69;;;18.80;29.01
64189;BME280;50493;50.970;10.082;2023-05-19T06:04:06;100106.59;;;18.70;30.17
64189;BME280;50493;50.970;10.082;2023-05-19T06:06:31;100099.47;;;19.30;31.49
64189;BME280;50493;50.970;10.082;2023-05-19T06:08:56;100103.84;;;19.31;32.19
64189;BME280;50493;50.970;10.082;2023-05-19T06:11:22;100102.88;;;19.52;31.84
64189;BME280;50493;50.970;10.082;2023-05-19T06:13:47;100110.53;;;18.81;29.17
64189;BME280;50493;50.970;10.082;2023-05-19T06:16:14;100099.53;;;19.28;32.08
64189;BME280;50493;50.970;10.082;2023-05-19T06:18:39;100106.66;;;18.06;33.66
64189;BME280;50493;50.970;10.082;2023-05-19T06:21:05;100102.66;;;18.79;32.35
64189;BME280;50493;50.970;10.082;2023-05-19T06:23:31;100103.34;;;19.97;29.61
64189;BME280;50493;50.970;10.082;2023-05-19T06:25:56;100094.53;;;19.79;29.87
64189;BME280;50493;50.970;10.082;2023-05-19T06:28:21;100105.44;;;19.54;28.25
64189;BME280;50493;50.970;10.082;2023-05-19T06:30:53;100110.31;;;17.35;34.30
64189;BME280;50493;50.970;10.082;2023-05-19T06:33:25;100107.66;;;18.44;31.96
64189;BME280;50493;50.970;10.082;2023-05-19T06:35:50;100104.81;;;18.28;31.64
64189;BME280;50493;50.970;10.082;2023-05-19T06:38:16;100103.34;;;18.64;30.86
64189;BME280;50493;50.970;10.082;2023-05-19T06:40:41;100110.84;;;18.32;32.69
64189;BME280;50493;50.970;10.082;2023-05-19T06:43:06;100097.63;;;19.32;30.40
64189;BME280;50493;50.970;10.082;2023-05-19T06:45:32;100105.00;;;19.06;31.45
64189;BME280;50493;50.970;10.082;2023-05-19T06:47:57;100101.94;;;19.90;29.07
64189;BME280;50493;50.970;10.082;2023-05-19T06:50:24;100101.16;;;19.70;28.56
64189;BME280;50493;50.970;10.082;2023-05-19T06:52:49;100100.66;;;19.99;29.31
64189;BME280;50493;50.970;10.082;2023-05-19T06:55:15;100095.94;;;20.92;27.91
64189;BME280;50493;50.970;10.082;2023-05-19T06:57:40;100097.72;;;21.57;25.85
64189;BME280;50493;50.970;10.082;2023-05-19T07:00:06;100100.84;;;20.13;27.46
64189;BME280;50493;50.970;10.082;2023-05-19T07:02:38;100094.13;;;20.59;27.96
64189;BME280;50493;50.970;10.082;2023-05-19T07:05:04;100098.34;;;20.96;26.69
64189;BME280;50493;50.970;10.082;2023-05-19T07:07:30;100109.22;;;18.07;31.27
64189;BME280;50493;50.970;10.082;2023-05-19T07:09:56;100105.78;;;18.68;32.42
64189;BME280;50493;50.970;10.082;2023-05-19T07:12:21;100104.31;;;19.60;30.20
64189;BME280;50493;50.970;10.082;2023-05-19T07:14:46;100110.88;;;19.32;30.28
64189;BME280;50493;50.970;10.082;2023-05-19T07:17:12;100099.22;;;19.92;29.77
64189;BME280;50493;50.970;10.082;2023-05-19T07:19:37;100099.59;;;20.20;29.61
64189;BME280;50493;50.970;10.082;2023-05-19T07:22:03;100100.94;;;18.78;30.95
64189;BME280;50493;50.970;10.082;2023-05-19T07:24:29;100097.50;;;19.91;29.68
64189;BME280;50493;50.970;10.082;2023-05-19T07:26:55;100092.81;;;19.02;31.17
64189;BME280;50493;50.970;10.082;2023-05-19T07:29:21;100092.84;;;18.19;31.68
64189;BME280;50493;50.970;10.082;2023-05-19T07:31:46;100099.84;;;18.82;31.49
64189;BME280;50493;50.970;10.082;2023-05-19T07:34:11;100093.63;;;18.22;32.02
64189;BME280;50493;50.970;10.082;2023-05-19T07:36:37;100086.09;;;19.33;29.88
64189;BME280;50493;50.970;10.082;2023-05-19T07:39:02;100078.31;;;20.55;28.60
64189;BME280;50493;50.970;10.082;2023-05-19T07:41:29;100082.34;;;20.98;28.05
64189;BME280;50493;50.970;10.082;2023-05-19T07:43:54;100079.09;;;19.51;30.27
64189;BME280;50493;50.970;10.082;2023-05-19T07:46:20;100089.06;;;18.46;31.77
64189;BME280;50493;50.970;10.082;2023-05-19T07:48:46;100087.09;;;16.96;33.89
64189;BME280;50493;50.970;10.082;2023-05-19T07:51:11;100091.78;;;17.81;33.15
64189;BME280;50493;50.970;10.082;2023-05-19T07:53:37;100087.41;;;18.23;32.97
64189;BME280;50493;50.970;10.082;2023-05-19T07:56:02;100082.38;;;18.99;31.36
64189;BME280;50493;50.970;10.082;2023-05-19T07:58:29;100076.78;;;19.43;30.25
64189;BME280;50493;50.970;10.082;2023-05-19T08:00:56;100073.28;;;16.89;36.46
64189;BME280;50493;50.970;10.082;2023-05-19T08:03:21;100065.88;;;17.67;33.95
64189;BME280;50493;50.970;10.082;2023-05-19T08:05:47;100060.72;;;19.08;31.57
64189;BME280;50493;50.970;10.082;2023-05-19T08:08:13;100072.88;;;18.12;31.60
64189;BME280;50493;50.970;10.082;2023-05-19T08:10:40;100067.97;;;18.03;32.60
64189;BME280;50493;50.970;10.082;2023-05-19T08:13:06;100065.84;;;18.11;32.69
64189;BME280;50493;50.970;10.082;2023-05-19T08:15:32;100057.31;;;19.44;32.04
64189;BME280;50493;50.970;10.082;2023-05-19T08:17:58;100055.59;;;18.03;32.70
64189;BME280;50493;50.970;10.082;2023-05-19T08:20:23;100061.09;;;17.99;33.33
64189;BME280;50493;50.970;10.082;2023-05-19T08:22:48;100062.47;;;18.69;32.57
64189;BME280;50493;50.970;10.082;2023-05-19T08:25:14;100064.91;;;18.95;32.08
64189;BME280;50493;50.970;10.082;2023-05-19T08:27:39;100057.03;;;19.31;30.97
64189;BME280;50493;50.970;10.082;2023-05-19T08:30:06;100049.41;;;18.85;31.93
64189;BME280;50493;50.970;10.082;2023-05-19T08:32:33;100048.13;;;19.51;31.18
64189;BME280;50493;50.970;10.082;2023-05-19T08:34:58;100044.25;;;18.82;31.89
64189;BME280;50493;50.970;10.082;2023-05-19T08:37:24;100045.28;;;19.37;31.74
64189;BME280;50493;50.970;10.082;2023-05-19T08:39:49;100028.22;;;20.32;30.25
64189;BME280;50493;50.970;10.082;2023-05-19T08:42:15;100028.72;;;20.23;30.78
64189;BME280;50493;50.970;10.082;2023-05-19T08:44:40;100037.47;;;18.35;31.58
64189;BME280;50493;50.970;10.082;2023-05-19T08:47:07;100033.91;;;18.16;33.07
64189;BME280;50493;50.970;10.082;2023-05-19T08:49:42;100032.66;;;19.04;31.78
64189;BME280;50493;50.970;10.082;2023-05-19T08:52:15;100014.81;;;20.17;30.83
64189;BME280;50493;50.970;10.082;2023-05-19T08:54:46;100035.94;;;19.47;32.02
64189;BME280;50493;50.970;10.082;2023-05-19T08:57:15;100032.06;;;18.78;32.65
64189;BME280;50493;50.970;10.082;2023-05-19T08:59:40;100025.09;;;18.96;32.43
64189;BME280;50493;50.970;10.082;2023-05-19T09:02:08;100023.38;;;20.40;29.23
64189;BME280;50493;50.970;10.082;2023-05-19T09:04:35;100018.78;;;18.99;31.53
64189;BME280;50493;50.970;10.082;2023-05-19T09:07:02;100021.00;;;20.18;30.65
64189;BME280;50493;50.970;10.082;2023-05-19T09:09:28;100014.34;;;20.27;31.48
64189;BME280;50493;50.970;10.082;2023-05-19T09:11:53;100016.28;;;20.23;29.73
64189;BME280;50493;50.970;10.082;2023-05-19T09:14:19;100016.09;;;20.77;29.71
64189;BME280;50493;50.970;10.082;2023-05-19T09:16:44;100016.88;;;20.79;30.44
64189;BME280;50493;50.970;10.082;2023-05-19T09:19:13;100016.22;;;21.39;29.64
64189;BME280;50493;50.970;10.082;2023-05-19T09:21:40;100009.06;;;22.02;29.09
64189;BME280;50493;50.970;10.082;2023-05-19T09:24:08;100011.31;;;21.64;28.49
64189;BME280;50493;50.970;10.082;2023-05-19T09:26:37;100015.72;;;21.01;30.20
64189;BME280;50493;50.970;10.082;2023-05-19T09:29:10;100022.13;;;16.92;35.13
64189;BME280;50493;50.970;10.082;2023-05-19T09:31:35;100029.59;;;18.34;34.60
64189;BME280;50493;50.970;10.082;2023-05-19T09:34:00;100021.19;;;16.93;33.95
64189;BME280;50493;50.970;10.082;2023-05-19T09:36:27;100015.75;;;17.42;36.16
64189;BME280;50493;50.970;10.082;2023-05-19T09:38:53;100022.38;;;16.10;36.58
64189;BME280;50493;50.970;10.082;2023-05-19T09:41:20;100006.16;;;17.83;33.73
64189;BME280;50493;50.970;10.082;2023-05-19T09:49:46;100008.22;;;18.39;34.88
64189;BME280;50493;50.970;10.082;2023-05-19T09:52:14;99994.50;;;17.45;34.69
64189;BME280;50493;50.970;10.082;2023-05-19T09:54:40;100001.47;;;17.90;34.63
64189;BME280;50493;50.970;10.082;2023-05-19T09:57:07;99996.72;;;18.79;33.81
64189;BME280;50493;50.970;10.082;2023-05-19T09:59:33;99999.19;;;18.03;35.33
64189;BME280;50493;50.970;10.082;2023-05-19T10:08:06;99981.97;;;18.13;35.59
64189;BME280;50493;50.970;10.082;2023-05-19T10:10:34;99988.72;;;18.20;35.05
64189;BME280;50493;50.970;10.082;2023-05-19T10:13:02;99988.41;;;18.08;35.13
64189;BME280;50493;50.970;10.082;2023-05-19T10:15:30;99980.69;;;19.57;33.03
64189;BME280;50493;50.970;10.082;2023-05-19T10:17:56;99978.16;;;19.54;33.44
64189;BME280;50493;50.970;10.082;2023-05-19T10:20:21;99982.47;;;19.92;33.67
64189;BME280;50493;50.970;10.082;2023-05-19T10:22:47;99972.88;;;19.71;33.46
64189;BME280;50493;50.970;10.082;2023-05-19T10:25:13;99984.06;;;20.96;31.06
64189;BME280;50493;50.970;10.082;2023-05-19T10:27:52;99971.66;;;20.97;31.24
64189;BME280;50493;50.970;10.082;2023-05-19T10:30:24;99978.72;;;20.31;32.34
64189;BME280;50493;50.970;10.082;2023-05-19T10:32:51;99972.06;;;19.15;32.97
64189;BME280;50493;50.970;10.082;2023-05-19T10:35:54;99967.34;;;19.76;34.64
64189;BME280;50493;50.970;10.082;2023-05-19T10:38:29;99970.31;;;20.05;31.21
64189;BME280;50493;50.970;10.082;2023-05-19T10:41:02;99971.88;;;19.01;33.72
64189;BME280;50493;50.970;10.082;2023-05-19T10:43:40;99961.16;;;20.78;33.65
64189;BME280;50493;50.970;10.082;2023-05-19T10:46:10;99955.94;;;20.27;31.64
64189;BME280;50493;50.970;10.082;2023-05-19T10:48:36;99955.00;;;20.10;29.47
64189;BME280;50493;50.970;10.082;2023-05-19T10:51:02;99953.50;;;20.55;31.45
64189;BME280;50493;50.970;10.082;2023-05-19T10:53:30;99956.09;;;19.17;31.50
64189;BME280;50493;50.970;10.082;2023-05-19T10:55:55;99957.25;;;19.11;33.05
64189;BME280;50493;50.970;10.082;2023-05-19T10:58:36;99951.56;;;19.19;30.96
64189;BME280;50493;50.970;10.082;2023-05-19T11:01:06;99954.63;;;17.94;34.83
64189;BME280;50493;50.970;10.082;2023-05-19T11:03:42;99954.88;;;19.05;31.32
64189;BME280;50493;50.970;10.082;2023-05-19T11:06:19;99948.50;;;20.33;30.33
64189;BME280;50493;50.970;10.082;2023-05-19T11:08:44;99955.75;;;19.25;33.59
64189;BME280;50493;50.970;10.082;2023-05-19T11:11:13;99949.41;;;19.81;34.86
64189;BME280;50493;50.970;10.082;2023-05-19T11:13:39;99954.19;;;18.63;33.37
64189;BME280;50493;50.970;10.082;2023-05-19T11:16:07;99946.88;;;18.87;33.63
64189;BME280;50493;50.970;10.082;2023-05-19T11:18:34;99939.84;;;20.30;33.04
64189;BME280;50493;50.970;10.082;2023-05-19T11:21:00;99941.13;;;20.72;35.72
64189;BME280;50493;50.970;10.082;2023-05-19T11:23:26;99941.41;;;21.46;31.91
64189;BME280;50493;50.970;10.082;2023-05-19T11:25:52;99945.78;;;20.00;35.64
64189;BME280;50493;50.970;10.082;2023-05-19T11:28:22;99959.06;;;20.00;28.51
64189;BME280;50493;50.970;10.082;2023-05-19T11:30:53;99956.19;;;17.12;31.93
64189;BME280;50493;50.970;10.082;2023-05-19T11:33:19;99952.13;;;18.30;34.19
64189;BME280;50493;50.970;10.082;2023-05-19T11:35:47;99948.97;;;17.81;31.98
64189;BME280;50493;50.970;10.082;2023-05-19T11:38:15;99945.97;;;19.79;35.82
64189;BME280;50493;50.970;10.082;2023-05-19T11:40:41;99949.25;;;20.02;29.65
64189;BME280;50493;50.970;10.082;2023-05-19T11:43:07;99940.56;;;20.49;36.41
64189;BME280;50493;50.970;10.082;2023-05-19T11:45:33;99924.22;;;21.67;32.36
64189;BME280;50493;50.970;10.082;2023-05-19T11:47:59;99928.22;;;20.98;28.96
64189;BME280;50493;50.970;10.082;2023-05-19T11:50:25;99932.22;;;21.51;33.92
64189;BME280;50493;50.970;10.082;2023-05-19T11:52:52;99940.09;;;20.91;30.70
64189;BME280;50493;50.970;10.082;2023-05-19T11:55:18;99946.69;;;20.83;31.61
64189;BME280;50493;50.970;10.082;2023-05-19T11:57:56;99938.53;;;20.86;29.80
64189;BME280;50493;50.970;10.082;2023-05-19T12:00:23;99937.00;;;20.82;35.92
64189;BME280;50493;50.970;10.082;2023-05-19T12:02:49;99930.31;;;20.75;30.71
64189;BME280;50493;50.970;10.082;2023-05-19T12:05:17;99928.91;;;20.36;33.68
64189;BME280;50493;50.970;10.082;2023-05-19T12:07:42;99929.75;;;19.85;34.20
64189;BME280;50493;50.970;10.082;2023-05-19T12:10:10;99932.38;;;20.86;30.06
64189;BME280;50493;50.970;10.082;2023-05-19T12:12:36;99933.59;;;20.96;31.83
64189;BME280;50493;50.970;10.082;2023-05-19T12:15:02;99935.59;;;22.14;31.61
64189;BME280;50493;50.970;10.082;2023-05-19T12:17:31;99935.78;;;21.97;27.74
64189;BME280;50493;50.970;10.082;2023-05-19T12:19:56;99936.53;;;21.99;27.22
64189;BME280;50493;50.970;10.082;2023-05-19T12:22:22;99929.59;;;21.82;27.88
64189;BME280;50493;50.970;10.082;2023-05-19T12:24:48;99921.00;;;19.66;30.43
64189;BME280;50493;50.970;10.082;2023-05-19T12:27:18;99949.53;;;17.46;34.62
64189;BME280;50493;50.970;10.082;2023-05-19T12:29:48;99937.50;;;18.22;35.27
64189;BME280;50493;50.970;10.082;2023-05-19T12:32:15;99933.38;;;16.64;36.09
64189;BME280;50493;50.970;10.082;2023-05-19T12:34:41;99937.63;;;16.92;39.52
64189;BME280;50493;50.970;10.082;2023-05-19T12:37:06;99931.81;;;18.31;32.00
64189;BME280;50493;50.970;10.082;2023-05-19T12:39:32;99930.69;;;17.76;34.86
64189;BME280;50493;50.970;10.082;2023-05-19T12:42:01;99927.47;;;17.68;40.20
64189;BME280;50493;50.970;10.082;2023-05-19T12:44:29;99936.22;;;17.70;34.02
64189;BME280;50493;50.970;10.082;2023-05-19T12:46:56;99926.13;;;19.34;40.59
64189;BME280;50493;50.970;10.082;2023-05-19T12:49:21;99917.59;;;19.81;31.49
64189;BME280;50493;50.970;10.082;2023-05-19T12:51:50;99909.22;;;20.40;38.89
64189;BME280;50493;50.970;10.082;2023-05-19T12:54:17;99916.94;;;20.61;30.92
64189;BME280;50493;50.970;10.082;2023-05-19T12:56:48;99908.59;;;19.84;33.37